Nunapitchuk, Alaska
Current Conditions -  °F | °C
As of 11:56 PM on Saturday 25 Oct 2014 (Local Time) from PPIT Reporting Station
Clear Clear  
Wind Chill: 16°   Ceiling: Unl
Heat Index: 25°   Visibility: 10mi
Dew Point: 24°   Wind: 8mph
Humidity: 96%   Direction: 230°SW
Pressure: 29.86"   Gusts: NA
Location:  60.9°N, 162.46°W
Report Text: PPIT 260756Z AUTO 23007KT 10SM CLR M04/M04 A2986 RMK AO2 SLP113 T10391044 FZRANO
Loading
Personal Weather Stations






























Interactive Weather Map
Tropical Storm Tracking
New forecast layout! Learn more

10-Day Weather Forecast

Advertisements
Track Severe Weather on mobile